createdAt,value
2018-05-13T14:17:36.044Z,1004.37
2018-05-13T14:18:36.127Z,1004.39
2018-05-13T14:19:36.071Z,1004.36
2018-05-13T14:28:06.240Z,1004.39
2018-05-13T14:29:06.109Z,1004.37
2018-05-13T14:30:59.172Z,1004.40
2018-05-13T14:31:59.144Z,1004.40
2018-05-13T14:32:59.314Z,1004.42
2018-05-13T14:33:59.191Z,1004.38
2018-05-13T14:34:59.287Z,1004.36
2018-05-13T14:35:59.225Z,1004.25
2018-05-13T14:36:59.316Z,1004.36
2018-05-13T14:37:59.268Z,1004.42
2018-05-13T14:38:59.299Z,1004.39
2018-05-13T14:39:59.265Z,1004.41
2018-05-13T14:40:59.363Z,1004.41
2018-05-13T14:41:59.329Z,1004.43
2018-05-13T14:42:59.426Z,1004.43
2018-05-13T14:43:59.331Z,1004.44
2018-05-13T14:44:59.453Z,1004.41
2018-05-13T14:45:59.399Z,1004.45
2018-05-13T14:46:59.383Z,1004.50
2018-05-13T14:47:59.406Z,1004.43
2018-05-13T14:48:59.462Z,1004.43
2018-05-13T14:49:59.439Z,1004.44
2018-05-13T14:50:59.475Z,1004.41
2018-05-13T14:51:59.472Z,1004.35
2018-05-13T14:52:59.594Z,1004.25
2018-05-13T14:53:59.546Z,1004.29
2018-05-13T14:54:59.604Z,1004.28
2018-05-13T14:55:59.547Z,1004.34
2018-05-13T14:56:59.621Z,1004.32
2018-05-13T14:57:59.670Z,1004.37
2018-05-13T14:58:59.733Z,1004.39
2018-05-13T14:59:59.622Z,1004.35
2018-05-13T15:01:00.071Z,1004.38
2018-05-13T15:01:59.663Z,1004.37
2018-05-13T15:02:59.766Z,1004.33
2018-05-13T15:03:59.704Z,1004.36
2018-05-13T15:04:59.860Z,1004.38
2018-05-13T15:05:59.776Z,1004.37
2018-05-13T15:06:59.752Z,1004.35
2018-05-13T15:07:59.790Z,1004.38
2018-05-13T15:08:59.791Z,1004.39
2018-05-13T15:10:01.853Z,1004.42
2018-05-13T15:10:59.824Z,1004.34
2018-05-13T15:11:59.852Z,1004.44
2018-05-13T15:12:59.927Z,1004.45
2018-05-13T15:13:59.882Z,1004.45
2018-05-13T15:14:59.954Z,1004.47
2018-05-13T15:15:59.921Z,1004.48
2018-05-13T15:17:00.087Z,1004.47
2018-05-13T15:17:59.958Z,1004.52
2018-05-13T15:19:00.091Z,1004.51
2018-05-13T15:19:59.999Z,1004.50
2018-05-13T15:21:00.085Z,1004.46
2018-05-13T15:22:00.034Z,1004.52
2018-05-13T15:23:00.094Z,1004.50
2018-05-13T15:24:00.074Z,1004.52
2018-05-13T15:25:00.208Z,1004.56
2018-05-13T15:26:00.111Z,1004.57
2018-05-13T15:27:00.220Z,1004.56
2018-05-13T15:28:00.150Z,1004.60
2018-05-13T15:29:00.261Z,1004.62
2018-05-13T15:30:00.186Z,1004.62
2018-05-13T15:31:00.246Z,1004.68
2018-05-13T15:32:00.225Z,1004.66
2018-05-13T15:33:01.288Z,1004.70
2018-05-13T15:34:00.267Z,1004.74
2018-05-13T15:35:00.381Z,1004.71
2018-05-13T15:36:00.303Z,1004.72
2018-05-13T15:37:00.391Z,1004.73
2018-05-13T15:38:00.343Z,1004.73
2018-05-13T15:39:00.405Z,1004.72
2018-05-13T15:40:00.379Z,1004.74
2018-05-13T15:41:00.518Z,1004.73
2018-05-13T15:42:00.427Z,1004.71
2018-05-13T15:43:00.801Z,1004.70
2018-05-13T15:44:00.454Z,1004.73
2018-05-13T15:45:00.546Z,1004.66
2018-05-13T15:46:00.515Z,1004.66
2018-05-13T15:47:00.565Z,1004.65
2018-05-13T15:48:00.533Z,1004.60
2018-05-13T15:49:00.708Z,1004.61
2018-05-13T15:50:00.573Z,1004.57
2018-05-13T15:51:00.686Z,1004.59
2018-05-13T15:52:00.616Z,1004.59
2018-05-13T15:53:00.697Z,1004.59
2018-05-13T15:54:00.659Z,1004.60
2018-05-13T15:55:00.840Z,1004.65
2018-05-13T15:56:00.826Z,1004.65
2018-05-13T15:57:00.731Z,1004.62
2018-05-13T15:58:00.831Z,1004.61
2018-05-13T15:59:00.816Z,1004.65
2018-05-13T16:00:00.860Z,1004.66
2018-05-13T16:01:00.890Z,1004.69
2018-05-13T16:02:00.805Z,1004.69
2018-05-13T16:03:00.893Z,1004.67
2018-05-13T16:04:01.023Z,1004.66
2018-05-13T16:05:00.877Z,1004.69
2018-05-13T16:06:00.922Z,1004.66
2018-05-13T16:07:00.904Z,1004.68
2018-05-13T16:08:01.002Z,1004.70
2018-05-13T16:09:00.943Z,1004.68
2018-05-13T16:10:01.023Z,1004.66
2018-05-13T16:11:00.984Z,1004.68
2018-05-13T16:12:01.031Z,1004.62
2018-05-13T16:13:01.890Z,1004.67
2018-05-13T16:14:02.163Z,1004.67
2018-05-13T16:15:01.079Z,1004.67
2018-05-13T16:16:01.203Z,1004.70
2018-05-13T16:17:01.100Z,1004.73
2018-05-13T16:18:01.172Z,1004.72
2018-05-13T16:19:01.324Z,1004.72
2018-05-13T16:20:02.226Z,1004.74
2018-05-13T16:21:01.185Z,1004.75
2018-05-13T16:22:01.298Z,1004.73
2018-05-13T16:23:01.224Z,1004.77
2018-05-13T16:24:01.336Z,1004.73
2018-05-13T16:25:01.367Z,1004.78
2018-05-13T16:26:01.327Z,1004.73
2018-05-13T16:27:01.303Z,1004.73
2018-05-13T16:28:01.437Z,1004.71
2018-05-13T16:29:01.339Z,1004.70
2018-05-13T16:30:01.527Z,1004.70
2018-05-13T16:31:01.378Z,1004.67
2018-05-13T16:32:01.611Z,1004.68
2018-05-13T16:33:01.416Z,1004.63
2018-05-13T16:34:01.589Z,1004.61
2018-05-13T16:35:01.470Z,1004.65
2018-05-13T16:36:01.475Z,1004.65
2018-05-13T16:37:02.526Z,1004.66
2018-05-13T16:38:01.514Z,1004.66
2018-05-13T16:39:01.658Z,1004.65
2018-05-13T16:40:01.563Z,1004.63
2018-05-13T16:41:01.635Z,1004.69
2018-05-13T16:42:01.603Z,1004.65
2018-05-13T16:43:01.926Z,1004.64
2018-05-13T16:44:01.674Z,1004.65
2018-05-13T16:45:01.788Z,1004.61
2018-05-13T16:46:01.692Z,1004.62
2018-05-13T16:47:01.776Z,1004.66
2018-05-13T16:48:01.743Z,1004.65
2018-05-13T16:49:01.791Z,1004.61
2018-05-13T16:50:01.843Z,1004.64
2018-05-13T16:51:01.894Z,1004.61
2018-05-13T16:52:01.808Z,1004.63
2018-05-13T16:53:01.911Z,1004.62
2018-05-13T16:54:01.865Z,1004.66
2018-05-13T16:55:01.935Z,1004.67
2018-05-13T16:56:02.032Z,1004.67
2018-05-13T16:57:01.944Z,1004.66
2018-05-13T16:58:01.925Z,1004.66
2018-05-13T16:59:02.054Z,1004.64
2018-05-13T17:00:01.964Z,1004.63
2018-05-13T17:01:02.059Z,1004.65
2018-05-13T17:02:02.004Z,1004.61
2018-05-13T17:03:02.072Z,1004.64
2018-05-13T17:04:02.067Z,1004.65
2018-05-13T17:05:02.089Z,1004.62
2018-05-13T17:06:02.081Z,1004.65
2018-05-13T17:07:02.258Z,1004.67
2018-05-13T17:08:02.150Z,1004.67
2018-05-13T17:09:02.215Z,1004.66
2018-05-13T17:10:02.151Z,1004.64
2018-05-13T17:11:02.258Z,1004.62
2018-05-13T17:12:02.294Z,1004.65
2018-05-13T17:13:02.342Z,1004.61
2018-05-13T17:14:02.262Z,1004.61
2018-05-13T17:15:03.322Z,1004.62
2018-05-13T17:16:02.279Z,1004.59
2018-05-13T17:17:02.368Z,1004.64
2018-05-13T17:18:02.322Z,1004.61
2018-05-13T17:19:02.401Z,1004.62
2018-05-13T17:20:02.387Z,1004.60
2018-05-13T17:21:02.393Z,1004.65
2018-05-13T17:22:02.395Z,1004.63
2018-05-13T17:23:02.518Z,1004.67
2018-05-13T17:24:02.434Z,1004.68
2018-05-13T17:25:02.645Z,1004.66
2018-05-13T17:26:02.543Z,1004.66
2018-05-13T17:27:02.537Z,1004.72
2018-05-13T17:28:02.556Z,1004.73
2018-05-13T17:29:02.650Z,1004.75
2018-05-13T17:30:02.567Z,1004.75
2018-05-13T17:31:03.698Z,1004.75
2018-05-13T17:32:02.611Z,1004.76
2018-05-13T17:33:02.694Z,1004.77
2018-05-13T17:34:02.649Z,1004.73
2018-05-13T17:35:02.691Z,1004.77
2018-05-13T17:36:02.692Z,1004.77
2018-05-13T17:37:02.820Z,1004.77
2018-05-13T17:38:02.745Z,1004.79
2018-05-13T17:39:02.820Z,1004.77
2018-05-13T17:40:02.760Z,1004.82
2018-05-13T17:41:02.839Z,1004.81
2018-05-13T17:42:02.810Z,1004.80
2018-05-13T17:43:02.948Z,1004.83
2018-05-13T17:44:02.917Z,1004.84
2018-05-13T17:45:02.961Z,1004.90
2018-05-13T17:46:02.875Z,1004.90
2018-05-13T17:47:02.980Z,1004.89
2018-05-13T17:48:02.921Z,1004.94
2018-05-13T17:49:02.990Z,1004.92
2018-05-13T17:50:02.971Z,1004.95
2018-05-13T17:51:03.005Z,1004.92
2018-05-13T17:52:03.009Z,1004.88
2018-05-13T17:53:03.130Z,1004.85
2018-05-13T17:54:03.037Z,1004.89
2018-05-13T17:55:03.139Z,1004.89
2018-05-13T17:56:03.075Z,1004.83
2018-05-13T17:57:03.144Z,1004.86
2018-05-13T17:58:03.118Z,1004.83
2018-05-13T17:59:03.279Z,1004.83
2018-05-13T18:00:03.161Z,1004.82
2018-05-13T18:01:03.291Z,1004.80
2018-05-13T18:02:03.211Z,1004.79
2018-05-13T18:03:03.344Z,1004.84
2018-05-13T18:04:03.303Z,1004.86
2018-05-13T18:05:03.259Z,1004.89
2018-05-13T18:06:03.279Z,1004.89
2018-05-13T18:07:04.330Z,1004.87
2018-05-13T18:08:03.336Z,1004.95
2018-05-13T18:09:03.425Z,1004.92
2018-05-13T18:10:03.518Z,1004.93
2018-05-13T18:11:03.393Z,1004.91
2018-05-13T18:12:03.404Z,1004.94
2018-05-13T18:13:03.447Z,1004.92
2018-05-13T18:14:03.439Z,1004.93
2018-05-13T18:15:03.572Z,1004.97
2018-05-13T18:16:03.499Z,1004.92
2018-05-13T18:17:03.578Z,1004.96
2018-05-13T18:18:03.527Z,1004.88
2018-05-13T18:19:03.617Z,1004.90
2018-05-13T18:20:03.568Z,1004.91
2018-05-13T18:21:03.610Z,1004.86
2018-05-13T18:22:03.625Z,1004.87
2018-05-13T18:23:03.746Z,1004.90
2018-05-13T18:24:03.645Z,1004.88
2018-05-13T18:25:04.766Z,1004.90
2018-05-13T18:26:03.690Z,1004.88
2018-05-13T18:27:03.752Z,1004.89
2018-05-13T18:28:03.731Z,1004.85
2018-05-13T18:29:03.865Z,1004.87
2018-05-13T18:30:03.769Z,1004.93
2018-05-13T18:31:03.964Z,1004.90
2018-05-13T18:32:03.824Z,1004.88
2018-05-13T18:33:03.885Z,1004.91
2018-05-13T18:34:03.852Z,1004.92
2018-05-13T18:35:03.900Z,1004.96
2018-05-13T18:36:03.889Z,1005.01
2018-05-13T18:37:04.016Z,1005.00
2018-05-13T18:38:03.928Z,1004.99
2018-05-13T18:39:04.152Z,1005.03
2018-05-13T18:40:03.966Z,1005.02
2018-05-13T18:41:04.047Z,1005.02
2018-05-13T18:42:04.009Z,1005.03
2018-05-13T18:43:04.053Z,1005.08
2018-05-13T18:44:04.046Z,1005.07
2018-05-13T18:45:04.169Z,1005.07
2018-05-13T18:46:04.088Z,1005.08
2018-05-13T18:47:04.203Z,1005.04
2018-05-13T18:48:04.125Z,1005.05
2018-05-13T18:49:04.196Z,1005.07
2018-05-13T18:50:04.167Z,1004.98
2018-05-13T18:51:04.207Z,1005.01
2018-05-13T18:52:04.209Z,1005.03
2018-05-13T18:53:04.325Z,1005.04
2018-05-13T18:54:04.260Z,1005.04
2018-05-13T18:55:04.336Z,1005.04
2018-05-13T18:56:04.296Z,1005.07
2018-05-13T18:57:04.351Z,1005.08
2018-05-13T18:58:04.335Z,1005.09
2018-05-13T18:59:04.523Z,1005.11
2018-05-13T19:00:04.372Z,1005.07
2018-05-13T19:01:04.540Z,1005.09
2018-05-13T19:02:04.415Z,1005.07
2018-05-13T19:03:05.515Z,1005.05
2018-05-13T19:04:04.459Z,1005.05
2018-05-13T19:05:04.505Z,1005.04
2018-05-13T19:06:04.497Z,1005.10
2018-05-13T19:07:04.620Z,1004.99
2018-05-13T19:08:04.544Z,1004.97
2018-05-13T19:09:04.633Z,1004.94
2018-05-13T19:10:04.587Z,1004.96
2018-05-13T19:11:04.600Z,1004.96
2018-05-13T19:12:04.674Z,1004.91
2018-05-13T19:13:04.655Z,1004.96
2018-05-13T19:14:04.650Z,1004.95
2018-05-13T19:15:04.778Z,1004.94
2018-05-13T19:16:04.692Z,1004.96
2018-05-13T19:17:04.718Z,1004.89
2018-05-13T19:18:04.745Z,1004.91
2018-05-13T19:19:04.875Z,1004.97
2018-05-13T19:20:04.770Z,1004.90
2018-05-13T19:21:04.812Z,1004.94
2018-05-13T19:22:04.815Z,1004.95
2018-05-13T19:23:04.925Z,1004.97
2018-05-13T19:24:04.853Z,1004.96
2018-05-13T19:25:04.871Z,1004.94
2018-05-13T19:26:05.975Z,1004.93
2018-05-13T19:27:04.920Z,1004.97
2018-05-13T19:28:10.956Z,1005.00
2018-05-13T19:29:04.952Z,1005.02
2018-05-13T19:30:05.078Z,1005.00
2018-05-13T19:31:04.992Z,1004.97
2018-05-13T19:32:05.117Z,1005.01
2018-05-13T19:33:05.847Z,1004.97
2018-05-13T19:34:05.128Z,1005.01
2018-05-13T19:35:05.072Z,1005.04
2018-05-13T19:36:06.143Z,1005.05
2018-05-13T19:37:05.174Z,1005.10
2018-05-13T19:38:05.231Z,1005.13
2018-05-13T19:39:05.264Z,1005.12
2018-05-13T19:40:05.174Z,1005.12
2018-05-13T19:41:05.259Z,1005.11
2018-05-13T19:42:05.229Z,1005.12
2018-05-13T19:43:05.265Z,1005.14
2018-05-13T19:44:05.258Z,1005.10
2018-05-13T19:45:05.375Z,1005.14
2018-05-13T19:46:05.298Z,1005.12
2018-05-13T19:47:05.388Z,1005.16
2018-05-13T19:48:05.365Z,1005.14
2018-05-13T19:49:05.429Z,1005.14
2018-05-13T19:50:05.377Z,1005.18
2018-05-13T19:51:05.444Z,1005.17
2018-05-13T19:52:05.426Z,1005.16
2018-05-13T19:53:05.535Z,1005.15
2018-05-13T19:54:05.541Z,1005.23
2018-05-13T19:55:05.545Z,1005.22
2018-05-13T19:56:05.515Z,1005.25
2018-05-13T19:57:05.568Z,1005.21
2018-05-13T19:58:05.557Z,1005.31
2018-05-13T19:59:05.674Z,1005.25
2018-05-13T20:00:05.576Z,1005.34
2018-05-13T20:01:05.691Z,1005.30
2018-05-13T20:02:05.612Z,1005.36
2018-05-13T20:03:05.773Z,1005.41
2018-05-13T20:04:05.654Z,1005.41
2018-05-13T20:05:05.738Z,1005.43
2018-05-13T20:06:05.691Z,1005.40
2018-05-13T20:07:07.781Z,1005.39
2018-05-13T20:08:05.732Z,1005.34
2018-05-13T20:09:05.882Z,1005.34
2018-05-13T20:10:05.780Z,1005.36
2018-05-13T20:11:05.861Z,1005.36
2018-05-13T20:12:05.812Z,1005.37
2018-05-13T20:13:05.875Z,1005.35
2018-05-13T20:14:05.875Z,1005.33
2018-05-13T20:15:05.868Z,1005.31
2018-05-13T20:16:05.990Z,1005.37
2018-05-13T20:17:05.909Z,1005.35
2018-05-13T20:18:06.016Z,1005.33
2018-05-13T20:19:05.949Z,1005.31
2018-05-13T20:20:05.970Z,1005.39
2018-05-13T20:21:05.993Z,1005.37
2018-05-13T20:22:06.133Z,1005.36
2018-05-13T20:23:06.032Z,1005.40
2018-05-13T20:24:06.150Z,1005.42
2018-05-13T20:25:06.072Z,1005.44
2018-05-13T20:26:06.154Z,1005.43
2018-05-13T20:27:06.110Z,1005.42
2018-05-13T20:28:06.168Z,1005.44
2018-05-13T20:29:06.151Z,1005.45
2018-05-13T20:30:06.282Z,1005.40
2018-05-13T20:31:06.193Z,1005.43
2018-05-13T20:32:07.334Z,1005.40
2018-05-13T20:33:06.230Z,1005.37
2018-05-13T20:34:06.312Z,1005.38
2018-05-13T20:35:06.270Z,1005.38
2018-05-13T20:36:06.395Z,1005.37
2018-05-13T20:37:06.307Z,1005.38
2018-05-13T20:38:06.446Z,1005.43
2018-05-13T20:39:06.352Z,1005.46
2018-05-13T20:40:06.451Z,1005.45
2018-05-13T20:41:06.401Z,1005.50
2018-05-13T20:42:06.532Z,1005.48
2018-05-13T20:43:06.433Z,1005.49
2018-05-13T20:44:06.477Z,1005.50
2018-05-13T20:45:06.505Z,1005.47
2018-05-13T20:46:06.595Z,1005.47
2018-05-13T20:47:06.512Z,1005.48
2018-05-13T20:48:06.605Z,1005.50
2018-05-13T20:49:06.549Z,1005.52
2018-05-13T20:50:06.618Z,1005.52
2018-05-13T20:51:06.590Z,1005.51
2018-05-13T20:52:06.633Z,1005.54
2018-05-13T20:53:06.634Z,1005.51
2018-05-13T20:54:06.746Z,1005.51
2018-05-13T20:55:06.679Z,1005.55
2018-05-13T20:56:06.760Z,1005.56
2018-05-13T20:57:06.717Z,1005.56
2018-05-13T20:58:07.800Z,1005.63
2018-05-13T20:59:06.755Z,1005.64
2018-05-13T21:00:06.897Z,1005.70
2018-05-13T21:01:06.813Z,1005.70
2018-05-13T21:02:06.901Z,1005.74
2018-05-13T21:03:06.833Z,1005.78
2018-05-13T21:04:06.916Z,1005.80
2018-05-13T21:05:06.870Z,1005.78
2018-05-13T21:06:06.925Z,1005.82
2018-05-13T21:07:06.915Z,1005.83
2018-05-13T21:08:07.080Z,1005.87
2018-05-13T21:09:06.958Z,1005.88
2018-05-13T21:10:07.059Z,1005.87
2018-05-13T21:11:07.022Z,1005.87
2018-05-13T21:12:08.095Z,1005.88
2018-05-13T21:13:07.030Z,1005.85
2018-05-13T21:14:07.081Z,1005.88
2018-05-13T21:15:07.072Z,1005.94
2018-05-13T21:16:07.350Z,1005.92
2018-05-13T21:17:07.172Z,1005.92
2018-05-13T21:18:07.210Z,1005.92
2018-05-13T21:19:07.186Z,1005.96
2018-05-13T21:20:07.327Z,1005.92
2018-05-13T21:21:07.205Z,1005.94
2018-05-13T21:22:07.341Z,1005.95
2018-05-13T21:23:07.247Z,1005.92
2018-05-13T21:24:07.361Z,1005.87
2018-05-13T21:25:07.288Z,1005.89
2018-05-13T21:26:07.372Z,1005.86
2018-05-13T21:27:07.712Z,1005.84
2018-05-13T21:28:07.401Z,1005.83
2018-05-13T21:29:07.354Z,1005.79
2018-05-13T21:30:07.532Z,1005.75
2018-05-13T21:31:07.397Z,1005.71
2018-05-13T21:32:07.512Z,1005.67
2018-05-13T21:33:07.436Z,1005.63
2018-05-13T21:34:07.523Z,1005.65
2018-05-13T21:35:07.470Z,1005.61
2018-05-13T21:36:07.534Z,1005.57
2018-05-13T21:37:07.512Z,1005.58
2018-05-13T21:38:07.653Z,1005.54
2018-05-13T21:39:07.553Z,1005.49
2018-05-13T21:40:07.664Z,1005.45
2018-05-13T21:41:07.729Z,1005.45
2018-05-13T21:42:07.678Z,1005.41
2018-05-13T21:43:07.643Z,1005.38
2018-05-13T21:44:07.688Z,1005.38
2018-05-13T21:45:07.673Z,1005.33
2018-05-13T21:46:07.800Z,1005.35
2018-05-13T21:47:07.789Z,1005.34
2018-05-13T21:48:07.812Z,1005.35
2018-05-13T21:49:07.754Z,1005.33
2018-05-13T21:50:07.827Z,1005.33
2018-05-13T21:51:07.810Z,1005.30
2018-05-13T21:52:07.841Z,1005.29
2018-05-13T21:53:07.831Z,1005.27
2018-05-13T21:54:07.957Z,1005.29
2018-05-13T21:55:07.888Z,1005.24
2018-05-13T21:56:07.974Z,1005.26
2018-05-13T21:57:07.913Z,1005.25
2018-05-13T21:58:07.995Z,1005.23
2018-05-13T21:59:07.953Z,1005.22
2018-05-13T22:00:07.996Z,1005.20
2018-05-13T22:01:07.988Z,1005.20
2018-05-13T22:02:08.111Z,1005.19
2018-05-13T22:03:08.032Z,1005.19
2018-05-13T22:04:08.123Z,1005.17
2018-05-13T22:05:08.069Z,1005.17
2018-05-13T22:06:08.140Z,1005.12
2018-05-13T22:07:08.181Z,1005.12
2018-05-13T22:08:08.268Z,1005.10
2018-05-13T22:09:08.152Z,1005.04
2018-05-13T22:10:08.266Z,1005.04
2018-05-13T22:11:08.204Z,1005.04
2018-05-13T22:12:08.281Z,1005.03
2018-05-13T22:13:08.226Z,1005.03
2018-05-13T22:14:08.290Z,1005.02
2018-05-13T22:15:08.276Z,1005.00
2018-05-13T22:16:08.408Z,1005.01
2018-05-13T22:17:08.309Z,1005.01
2018-05-13T22:18:08.422Z,1005.00
2018-05-13T22:19:08.379Z,1005.01
2018-05-13T22:20:08.429Z,1005.02
2018-05-13T22:21:08.384Z,1004.97
2018-05-13T22:22:08.443Z,1004.98
2018-05-13T22:23:08.421Z,1004.96
2018-05-13T22:24:08.559Z,1004.92
2018-05-13T22:25:08.468Z,1004.89
2018-05-13T22:26:08.620Z,1004.88
2018-05-13T22:27:08.499Z,1004.90
2018-05-13T22:28:08.588Z,1004.88
2018-05-13T22:29:08.540Z,1004.86
2018-05-13T22:30:08.598Z,1004.85
2018-05-13T22:31:08.581Z,1004.87
2018-05-13T22:32:08.715Z,1004.87
2018-05-13T22:33:08.626Z,1004.88
2018-05-13T22:34:08.644Z,1004.86
2018-05-13T22:35:08.731Z,1004.84
2018-05-13T22:36:08.677Z,1004.82
2018-05-13T22:37:08.745Z,1004.83
2018-05-13T22:38:08.720Z,1004.77
2018-05-13T22:39:08.760Z,1004.74
2018-05-13T22:40:08.764Z,1004.70
2018-05-13T22:41:08.876Z,1004.69
2018-05-13T22:42:08.803Z,1004.69
2018-05-13T22:43:08.889Z,1004.71
2018-05-13T22:44:08.856Z,1004.72
2018-05-13T22:45:08.900Z,1004.75
2018-05-13T22:46:08.875Z,1004.74
2018-05-13T22:47:08.914Z,1004.76
2018-05-13T22:48:08.976Z,1004.78
2018-05-13T22:49:09.032Z,1004.78
2018-05-13T22:50:08.954Z,1004.75
2018-05-13T22:51:09.041Z,1004.74
2018-05-13T22:52:09.010Z,1004.71
2018-05-13T22:53:09.060Z,1004.66
2018-05-13T22:54:09.034Z,1004.67
2018-05-13T22:55:09.079Z,1004.69
2018-05-13T22:56:09.075Z,1004.72
2018-05-13T22:57:09.187Z,1004.74
2018-05-13T22:58:09.109Z,1004.74
2018-05-13T22:59:09.199Z,1004.75
2018-05-13T23:00:09.148Z,1004.75
2018-05-13T23:01:09.213Z,1004.77
2018-05-13T23:02:09.201Z,1004.74
2018-05-13T23:03:09.328Z,1004.71
2018-05-13T23:04:09.224Z,1004.69
2018-05-13T23:05:09.342Z,1004.65
2018-05-13T23:06:09.266Z,1004.65
2018-05-13T23:07:10.375Z,1004.63
2018-05-13T23:08:09.325Z,1004.58
2018-05-13T23:09:09.381Z,1004.58
2018-05-13T23:10:09.344Z,1004.56
2018-05-13T23:11:09.479Z,1004.54
2018-05-13T23:12:09.382Z,1004.50
2018-05-13T23:13:09.491Z,1004.47
2018-05-13T23:14:09.422Z,1004.44
2018-05-13T23:15:09.511Z,1004.40
2018-05-13T23:16:09.459Z,1004.41
2018-05-13T23:17:09.568Z,1004.45
2018-05-13T23:18:09.493Z,1004.46
2018-05-13T23:19:09.635Z,1004.46
2018-05-13T23:20:09.538Z,1004.38
2018-05-13T23:21:09.647Z,1004.29
2018-05-13T23:22:09.575Z,1004.29
2018-05-13T23:23:09.661Z,1004.30
2018-05-13T23:24:09.612Z,1004.36
2018-05-13T23:25:09.676Z,1004.35
2018-05-13T23:26:09.647Z,1004.35
2018-05-13T23:27:09.788Z,1004.36
2018-05-13T23:28:09.691Z,1004.37
2018-05-13T23:29:09.803Z,1004.35
2018-05-13T23:30:09.741Z,1004.35
2018-05-13T23:31:09.818Z,1004.42
2018-05-13T23:32:09.793Z,1004.47
2018-05-13T23:33:09.830Z,1004.48
2018-05-13T23:34:09.817Z,1004.50
2018-05-13T23:35:10.868Z,1004.49
2018-05-13T23:36:09.841Z,1004.44
2018-05-13T23:37:09.958Z,1004.44
2018-05-13T23:38:09.889Z,1004.48
2018-05-13T23:39:09.968Z,1004.45
2018-05-13T23:40:09.929Z,1004.49
2018-05-13T23:41:10.060Z,1004.45
2018-05-13T23:42:09.963Z,1004.43
2018-05-13T23:43:10.098Z,1004.45
2018-05-13T23:44:10.002Z,1004.44
2018-05-13T23:45:10.112Z,1004.40
2018-05-13T23:46:10.041Z,1004.45
2018-05-13T23:47:10.122Z,1004.48
2018-05-13T23:48:10.072Z,1004.49
2018-05-13T23:49:10.137Z,1004.49
2018-05-13T23:50:10.111Z,1004.48
2018-05-13T23:51:10.258Z,1004.50
2018-05-13T23:52:10.157Z,1004.48
2018-05-13T23:53:10.267Z,1004.50
2018-05-13T23:54:10.203Z,1004.50
2018-05-13T23:55:10.280Z,1004.52
2018-05-13T23:56:10.224Z,1004.48
2018-05-13T23:57:10.291Z,1004.50
2018-05-13T23:58:10.268Z,1004.52
2018-05-13T23:59:10.413Z,1004.49
